sensor_id;sensor_type;location;lat;lon;timestamp;P1;durP1;ratioP1;P2;durP2;ratioP2
12758;SDS011;20944;47.048;15.390;2022-07-24T00:01:41;1.20;;;1.10;;
12758;SDS011;20944;47.048;15.390;2022-07-24T00:04:11;1.02;;;1.00;;
12758;SDS011;20944;47.048;15.390;2022-07-24T00:06:39;1.75;;;1.00;;
12758;SDS011;20944;47.048;15.390;2022-07-24T00:09:08;0.98;;;0.90;;
12758;SDS011;20944;47.048;15.390;2022-07-24T00:11:36;2.67;;;1.40;;
12758;SDS011;20944;47.048;15.390;2022-07-24T00:14:05;2.15;;;1.20;;
12758;SDS011;20944;47.048;15.390;2022-07-24T00:16:36;1.10;;;1.10;;
12758;SDS011;20944;47.048;15.390;2022-07-24T00:19:05;1.20;;;1.00;;
12758;SDS011;20944;47.048;15.390;2022-07-24T00:21:35;1.60;;;1.50;;
12758;SDS011;20944;47.048;15.390;2022-07-24T00:24:04;1.23;;;1.13;;
12758;SDS011;20944;47.048;15.390;2022-07-24T00:26:33;2.55;;;1.13;;
12758;SDS011;20944;47.048;15.390;2022-07-24T00:29:01;1.10;;;1.10;;
12758;SDS011;20944;47.048;15.390;2022-07-24T00:31:31;1.30;;;1.27;;
12758;SDS011;20944;47.048;15.390;2022-07-24T00:34:00;1.27;;;1.17;;
12758;SDS011;20944;47.048;15.390;2022-07-24T00:36:28;1.20;;;1.10;;
12758;SDS011;20944;47.048;15.390;2022-07-24T00:38:58;3.00;;;1.23;;
12758;SDS011;20944;47.048;15.390;2022-07-24T00:41:27;1.70;;;1.23;;
12758;SDS011;20944;47.048;15.390;2022-07-24T00:43:58;1.23;;;1.08;;
12758;SDS011;20944;47.048;15.390;2022-07-24T00:46:28;1.50;;;1.30;;
12758;SDS011;20944;47.048;15.390;2022-07-24T00:48:57;1.88;;;0.98;;
12758;SDS011;20944;47.048;15.390;2022-07-24T00:51:26;1.05;;;1.00;;
12758;SDS011;20944;47.048;15.390;2022-07-24T00:53:55;1.40;;;1.30;;
12758;SDS011;20944;47.048;15.390;2022-07-24T00:56:25;1.63;;;1.33;;
12758;SDS011;20944;47.048;15.390;2022-07-24T00:58:53;3.55;;;1.48;;
12758;SDS011;20944;47.048;15.390;2022-07-24T01:01:22;1.17;;;1.08;;
12758;SDS011;20944;47.048;15.390;2022-07-24T01:03:50;1.65;;;1.30;;
12758;SDS011;20944;47.048;15.390;2022-07-24T01:06:19;2.45;;;1.30;;
12758;SDS011;20944;47.048;15.390;2022-07-24T01:08:47;3.17;;;1.30;;
12758;SDS011;20944;47.048;15.390;2022-07-24T01:11:16;0.90;;;0.90;;
12758;SDS011;20944;47.048;15.390;2022-07-24T01:13:47;1.23;;;1.10;;
12758;SDS011;20944;47.048;15.390;2022-07-24T01:16:17;1.23;;;1.00;;
12758;SDS011;20944;47.048;15.390;2022-07-24T01:18:45;1.38;;;1.27;;
12758;SDS011;20944;47.048;15.390;2022-07-24T01:21:15;2.28;;;1.40;;
12758;SDS011;20944;47.048;15.390;2022-07-24T01:23:44;1.40;;;1.30;;
12758;SDS011;20944;47.048;15.390;2022-07-24T01:26:13;1.73;;;1.33;;
12758;SDS011;20944;47.048;15.390;2022-07-24T01:28:42;1.38;;;1.25;;
12758;SDS011;20944;47.048;15.390;2022-07-24T01:31:11;2.30;;;1.15;;
12758;SDS011;20944;47.048;15.390;2022-07-24T01:33:39;1.30;;;1.20;;
12758;SDS011;20944;47.048;15.390;2022-07-24T01:36:08;3.25;;;1.20;;
12758;SDS011;20944;47.048;15.390;2022-07-24T01:38:37;2.03;;;1.42;;
12758;SDS011;20944;47.048;15.390;2022-07-24T01:41:06;2.00;;;1.80;;
12758;SDS011;20944;47.048;15.390;2022-07-24T01:43:34;1.30;;;1.20;;
12758;SDS011;20944;47.048;15.390;2022-07-24T01:46:03;1.35;;;1.25;;
12758;SDS011;20944;47.048;15.390;2022-07-24T01:48:31;1.40;;;1.30;;
12758;SDS011;20944;47.048;15.390;2022-07-24T01:51:00;1.48;;;1.38;;
12758;SDS011;20944;47.048;15.390;2022-07-24T01:53:29;2.83;;;1.50;;
12758;SDS011;20944;47.048;15.390;2022-07-24T01:55:59;1.50;;;1.40;;
12758;SDS011;20944;47.048;15.390;2022-07-24T01:58:27;1.67;;;1.58;;
12758;SDS011;20944;47.048;15.390;2022-07-24T02:00:56;2.42;;;1.90;;
12758;SDS011;20944;47.048;15.390;2022-07-24T02:03:24;2.50;;;1.48;;
12758;SDS011;20944;47.048;15.390;2022-07-24T02:05:53;1.95;;;1.77;;
12758;SDS011;20944;47.048;15.390;2022-07-24T02:08:21;4.97;;;1.40;;
12758;SDS011;20944;47.048;15.390;2022-07-24T02:10:49;1.90;;;1.48;;
12758;SDS011;20944;47.048;15.390;2022-07-24T02:13:19;2.35;;;1.73;;
12758;SDS011;20944;47.048;15.390;2022-07-24T02:15:47;1.55;;;1.45;;
12758;SDS011;20944;47.048;15.390;2022-07-24T02:18:15;1.88;;;1.77;;
12758;SDS011;20944;47.048;15.390;2022-07-24T02:20:44;3.10;;;2.03;;
12758;SDS011;20944;47.048;15.390;2022-07-24T02:23:12;2.10;;;1.80;;
12758;SDS011;20944;47.048;15.390;2022-07-24T02:25:44;3.92;;;2.00;;
12758;SDS011;20944;47.048;15.390;2022-07-24T02:28:13;3.60;;;1.50;;
12758;SDS011;20944;47.048;15.390;2022-07-24T02:30:44;2.17;;;1.80;;
12758;SDS011;20944;47.048;15.390;2022-07-24T02:33:12;2.40;;;1.85;;
12758;SDS011;20944;47.048;15.390;2022-07-24T02:35:41;1.67;;;1.58;;
12758;SDS011;20944;47.048;15.390;2022-07-24T02:38:09;2.83;;;1.67;;
12758;SDS011;20944;47.048;15.390;2022-07-24T02:40:37;1.98;;;1.55;;
12758;SDS011;20944;47.048;15.390;2022-07-24T02:43:06;2.63;;;2.17;;
12758;SDS011;20944;47.048;15.390;2022-07-24T02:45:34;3.53;;;2.13;;
12758;SDS011;20944;47.048;15.390;2022-07-24T02:48:04;2.10;;;2.00;;
12758;SDS011;20944;47.048;15.390;2022-07-24T02:50:33;2.13;;;1.80;;
12758;SDS011;20944;47.048;15.390;2022-07-24T02:53:05;3.72;;;1.90;;
12758;SDS011;20944;47.048;15.390;2022-07-24T02:55:34;2.97;;;2.22;;
12758;SDS011;20944;47.048;15.390;2022-07-24T02:58:02;1.77;;;1.67;;
12758;SDS011;20944;47.048;15.390;2022-07-24T03:00:31;3.03;;;2.50;;
12758;SDS011;20944;47.048;15.390;2022-07-24T03:02:59;2.70;;;2.50;;
12758;SDS011;20944;47.048;15.390;2022-07-24T03:05:29;3.00;;;1.92;;
12758;SDS011;20944;47.048;15.390;2022-07-24T03:07:58;1.88;;;1.77;;
12758;SDS011;20944;47.048;15.390;2022-07-24T03:10:26;3.42;;;2.30;;
12758;SDS011;20944;47.048;15.390;2022-07-24T03:12:54;3.60;;;2.55;;
12758;SDS011;20944;47.048;15.390;2022-07-24T03:15:22;3.38;;;2.47;;
12758;SDS011;20944;47.048;15.390;2022-07-24T03:17:52;3.70;;;2.20;;
12758;SDS011;20944;47.048;15.390;2022-07-24T03:20:24;6.35;;;2.92;;
12758;SDS011;20944;47.048;15.390;2022-07-24T03:22:56;4.07;;;2.90;;
12758;SDS011;20944;47.048;15.390;2022-07-24T03:25:25;3.38;;;2.92;;
12758;SDS011;20944;47.048;15.390;2022-07-24T03:27:53;3.38;;;3.08;;
12758;SDS011;20944;47.048;15.390;2022-07-24T03:30:21;3.10;;;2.80;;
12758;SDS011;20944;47.048;15.390;2022-07-24T03:32:50;6.97;;;3.20;;
12758;SDS011;20944;47.048;15.390;2022-07-24T03:35:18;5.13;;;2.95;;
12758;SDS011;20944;47.048;15.390;2022-07-24T03:37:47;4.13;;;3.00;;
12758;SDS011;20944;47.048;15.390;2022-07-24T03:40:17;3.17;;;2.88;;
12758;SDS011;20944;47.048;15.390;2022-07-24T03:42:45;2.90;;;2.63;;
12758;SDS011;20944;47.048;15.390;2022-07-24T03:45:13;3.25;;;2.95;;
12758;SDS011;20944;47.048;15.390;2022-07-24T03:47:42;3.22;;;2.95;;
12758;SDS011;20944;47.048;15.390;2022-07-24T03:50:10;2.63;;;2.42;;
12758;SDS011;20944;47.048;15.390;2022-07-24T03:52:42;2.70;;;2.50;;
12758;SDS011;20944;47.048;15.390;2022-07-24T03:55:10;3.03;;;2.75;;
12758;SDS011;20944;47.048;15.390;2022-07-24T03:57:40;2.92;;;2.72;;
12758;SDS011;20944;47.048;15.390;2022-07-24T04:00:09;3.40;;;3.10;;
12758;SDS011;20944;47.048;15.390;2022-07-24T04:02:38;3.03;;;2.72;;
12758;SDS011;20944;47.048;15.390;2022-07-24T04:05:07;3.30;;;2.90;;
12758;SDS011;20944;47.048;15.390;2022-07-24T04:07:35;2.97;;;2.78;;
12758;SDS011;20944;47.048;15.390;2022-07-24T04:10:05;3.00;;;2.70;;
12758;SDS011;20944;47.048;15.390;2022-07-24T04:12:35;3.60;;;3.30;;
12758;SDS011;20944;47.048;15.390;2022-07-24T04:15:05;6.05;;;2.80;;
12758;SDS011;20944;47.048;15.390;2022-07-24T04:17:37;3.50;;;3.05;;
12758;SDS011;20944;47.048;15.390;2022-07-24T04:20:06;3.72;;;3.33;;
12758;SDS011;20944;47.048;15.390;2022-07-24T04:22:35;6.32;;;3.25;;
12758;SDS011;20944;47.048;15.390;2022-07-24T04:25:05;5.63;;;3.72;;
12758;SDS011;20944;47.048;15.390;2022-07-24T04:27:35;3.28;;;2.90;;
12758;SDS011;20944;47.048;15.390;2022-07-24T04:30:04;4.32;;;3.50;;
12758;SDS011;20944;47.048;15.390;2022-07-24T04:32:34;3.67;;;3.30;;
12758;SDS011;20944;47.048;15.390;2022-07-24T04:35:03;4.10;;;3.70;;
12758;SDS011;20944;47.048;15.390;2022-07-24T04:37:33;4.78;;;3.72;;
12758;SDS011;20944;47.048;15.390;2022-07-24T04:40:02;4.05;;;3.60;;
12758;SDS011;20944;47.048;15.390;2022-07-24T04:42:30;4.35;;;3.60;;
12758;SDS011;20944;47.048;15.390;2022-07-24T04:44:59;3.63;;;3.33;;
12758;SDS011;20944;47.048;15.390;2022-07-24T04:47:28;6.55;;;3.80;;
12758;SDS011;20944;47.048;15.390;2022-07-24T04:49:57;4.30;;;3.55;;
12758;SDS011;20944;47.048;15.390;2022-07-24T04:52:25;5.00;;;3.90;;
12758;SDS011;20944;47.048;15.390;2022-07-24T04:54:53;3.45;;;3.25;;
12758;SDS011;20944;47.048;15.390;2022-07-24T04:57:22;3.95;;;3.55;;
12758;SDS011;20944;47.048;15.390;2022-07-24T04:59:50;4.18;;;3.20;;
12758;SDS011;20944;47.048;15.390;2022-07-24T05:02:19;7.15;;;3.63;;
12758;SDS011;20944;47.048;15.390;2022-07-24T05:04:48;3.97;;;3.45;;
12758;SDS011;20944;47.048;15.390;2022-07-24T05:07:17;5.82;;;3.80;;
12758;SDS011;20944;47.048;15.390;2022-07-24T05:09:45;7.68;;;4.05;;
12758;SDS011;20944;47.048;15.390;2022-07-24T05:12:13;4.90;;;3.88;;
12758;SDS011;20944;47.048;15.390;2022-07-24T05:14:42;6.40;;;4.03;;
12758;SDS011;20944;47.048;15.390;2022-07-24T05:17:10;3.80;;;3.25;;
12758;SDS011;20944;47.048;15.390;2022-07-24T05:19:38;5.22;;;3.67;;
12758;SDS011;20944;47.048;15.390;2022-07-24T05:22:08;5.28;;;3.67;;
12758;SDS011;20944;47.048;15.390;2022-07-24T05:24:37;4.10;;;3.72;;
12758;SDS011;20944;47.048;15.390;2022-07-24T05:27:05;5.60;;;3.22;;
12758;SDS011;20944;47.048;15.390;2022-07-24T05:29:38;4.47;;;4.07;;
12758;SDS011;20944;47.048;15.390;2022-07-24T05:32:07;4.60;;;3.72;;
12758;SDS011;20944;47.048;15.390;2022-07-24T05:34:35;5.55;;;4.22;;
12758;SDS011;20944;47.048;15.390;2022-07-24T05:37:08;6.32;;;3.80;;
12758;SDS011;20944;47.048;15.390;2022-07-24T05:39:36;3.53;;;2.83;;
12758;SDS011;20944;47.048;15.390;2022-07-24T05:42:05;8.45;;;4.13;;
12758;SDS011;20944;47.048;15.390;2022-07-24T05:44:33;6.07;;;4.32;;
12758;SDS011;20944;47.048;15.390;2022-07-24T05:47:02;6.13;;;3.78;;
12758;SDS011;20944;47.048;15.390;2022-07-24T05:49:33;5.35;;;3.72;;
12758;SDS011;20944;47.048;15.390;2022-07-24T05:52:01;4.28;;;3.65;;
12758;SDS011;20944;47.048;15.390;2022-07-24T05:54:36;5.72;;;3.65;;
12758;SDS011;20944;47.048;15.390;2022-07-24T05:57:04;5.63;;;3.92;;
12758;SDS011;20944;47.048;15.390;2022-07-24T05:59:33;4.20;;;3.78;;
12758;SDS011;20944;47.048;15.390;2022-07-24T06:02:01;3.92;;;3.38;;
12758;SDS011;20944;47.048;15.390;2022-07-24T06:04:31;3.90;;;3.38;;
12758;SDS011;20944;47.048;15.390;2022-07-24T06:06:59;4.10;;;3.55;;
12758;SDS011;20944;47.048;15.390;2022-07-24T06:09:28;4.38;;;3.97;;
12758;SDS011;20944;47.048;15.390;2022-07-24T06:11:58;3.85;;;3.45;;
12758;SDS011;20944;47.048;15.390;2022-07-24T06:14:26;5.40;;;3.85;;
12758;SDS011;20944;47.048;15.390;2022-07-24T06:16:55;4.18;;;3.78;;
12758;SDS011;20944;47.048;15.390;2022-07-24T06:19:23;6.47;;;3.33;;
12758;SDS011;20944;47.048;15.390;2022-07-24T06:21:52;4.82;;;3.33;;
12758;SDS011;20944;47.048;15.390;2022-07-24T06:24:20;4.28;;;3.88;;
12758;SDS011;20944;47.048;15.390;2022-07-24T06:26:49;4.75;;;3.33;;
12758;SDS011;20944;47.048;15.390;2022-07-24T06:29:38;4.20;;;3.78;;
12758;SDS011;20944;47.048;15.390;2022-07-24T06:32:07;4.95;;;3.90;;
12758;SDS011;20944;47.048;15.390;2022-07-24T06:34:36;5.95;;;4.32;;
12758;SDS011;20944;47.048;15.390;2022-07-24T06:37:04;5.05;;;4.03;;
12758;SDS011;20944;47.048;15.390;2022-07-24T06:39:32;4.47;;;4.07;;
12758;SDS011;20944;47.048;15.390;2022-07-24T06:42:01;4.80;;;4.25;;
12758;SDS011;20944;47.048;15.390;2022-07-24T06:44:29;6.20;;;4.18;;
12758;SDS011;20944;47.048;15.390;2022-07-24T06:47:01;5.32;;;3.75;;
12758;SDS011;20944;47.048;15.390;2022-07-24T06:49:30;5.95;;;4.57;;
12758;SDS011;20944;47.048;15.390;2022-07-24T06:51:58;4.00;;;3.42;;
12758;SDS011;20944;47.048;15.390;2022-07-24T06:54:26;3.92;;;3.60;;
12758;SDS011;20944;47.048;15.390;2022-07-24T06:56:55;6.22;;;4.07;;
12758;SDS011;20944;47.048;15.390;2022-07-24T06:59:23;6.25;;;4.50;;
12758;SDS011;20944;47.048;15.390;2022-07-24T07:01:51;4.45;;;4.05;;
12758;SDS011;20944;47.048;15.390;2022-07-24T07:04:21;3.80;;;3.40;;
12758;SDS011;20944;47.048;15.390;2022-07-24T07:06:50;3.88;;;3.47;;
12758;SDS011;20944;47.048;15.390;2022-07-24T07:09:18;4.45;;;4.05;;
12758;SDS011;20944;47.048;15.390;2022-07-24T07:11:46;4.22;;;3.90;;
12758;SDS011;20944;47.048;15.390;2022-07-24T07:14:17;4.57;;;4.25;;
12758;SDS011;20944;47.048;15.390;2022-07-24T07:16:46;4.97;;;4.35;;
12758;SDS011;20944;47.048;15.390;2022-07-24T07:19:15;4.95;;;4.10;;
12758;SDS011;20944;47.048;15.390;2022-07-24T07:21:45;4.85;;;4.45;;
12758;SDS011;20944;47.048;15.390;2022-07-24T07:24:13;4.50;;;4.10;;
12758;SDS011;20944;47.048;15.390;2022-07-24T07:26:42;5.03;;;4.10;;
12758;SDS011;20944;47.048;15.390;2022-07-24T07:29:11;4.10;;;3.80;;
12758;SDS011;20944;47.048;15.390;2022-07-24T07:31:39;5.25;;;4.20;;
12758;SDS011;20944;47.048;15.390;2022-07-24T07:34:08;4.47;;;4.18;;
12758;SDS011;20944;47.048;15.390;2022-07-24T07:36:36;6.75;;;4.70;;
12758;SDS011;20944;47.048;15.390;2022-07-24T07:39:06;4.38;;;4.07;;
12758;SDS011;20944;47.048;15.390;2022-07-24T07:41:34;4.75;;;4.35;;
12758;SDS011;20944;47.048;15.390;2022-07-24T07:44:03;4.75;;;4.20;;
12758;SDS011;20944;47.048;15.390;2022-07-24T07:46:33;4.13;;;3.75;;
12758;SDS011;20944;47.048;15.390;2022-07-24T07:49:02;5.47;;;4.40;;
12758;SDS011;20944;47.048;15.390;2022-07-24T07:51:31;4.90;;;4.30;;
12758;SDS011;20944;47.048;15.390;2022-07-24T07:53:59;5.55;;;5.00;;
12758;SDS011;20944;47.048;15.390;2022-07-24T07:56:29;5.07;;;4.60;;
12758;SDS011;20944;47.048;15.390;2022-07-24T07:58:59;4.70;;;4.30;;
12758;SDS011;20944;47.048;15.390;2022-07-24T08:01:27;5.03;;;4.55;;
12758;SDS011;20944;47.048;15.390;2022-07-24T08:03:56;4.88;;;4.47;;
12758;SDS011;20944;47.048;15.390;2022-07-24T08:06:24;4.60;;;4.22;;
12758;SDS011;20944;47.048;15.390;2022-07-24T08:08:55;5.07;;;4.55;;
12758;SDS011;20944;47.048;15.390;2022-07-24T08:11:25;6.22;;;5.13;;
12758;SDS011;20944;47.048;15.390;2022-07-24T08:13:55;5.38;;;4.47;;
12758;SDS011;20944;47.048;15.390;2022-07-24T08:16:23;4.95;;;4.50;;
12758;SDS011;20944;47.048;15.390;2022-07-24T08:18:52;5.47;;;4.30;;
12758;SDS011;20944;47.048;15.390;2022-07-24T08:21:20;5.78;;;4.63;;
12758;SDS011;20944;47.048;15.390;2022-07-24T08:23:49;4.72;;;4.32;;
12758;SDS011;20944;47.048;15.390;2022-07-24T08:26:17;4.60;;;3.95;;
12758;SDS011;20944;47.048;15.390;2022-07-24T08:28:45;4.30;;;4.00;;
12758;SDS011;20944;47.048;15.390;2022-07-24T08:31:15;5.35;;;4.95;;
12758;SDS011;20944;47.048;15.390;2022-07-24T08:33:43;5.20;;;4.28;;
12758;SDS011;20944;47.048;15.390;2022-07-24T08:36:12;5.68;;;4.95;;
12758;SDS011;20944;47.048;15.390;2022-07-24T08:38:40;8.18;;;5.10;;
12758;SDS011;20944;47.048;15.390;2022-07-24T08:41:08;5.70;;;5.20;;
12758;SDS011;20944;47.048;15.390;2022-07-24T08:43:37;5.75;;;5.25;;
12758;SDS011;20944;47.048;15.390;2022-07-24T08:46:06;6.93;;;5.07;;
12758;SDS011;20944;47.048;15.390;2022-07-24T08:48:41;5.68;;;5.07;;
12758;SDS011;20944;47.048;15.390;2022-07-24T08:51:12;4.80;;;4.40;;
12758;SDS011;20944;47.048;15.390;2022-07-24T08:53:42;5.30;;;4.80;;
12758;SDS011;20944;47.048;15.390;2022-07-24T08:56:11;5.95;;;5.47;;
12758;SDS011;20944;47.048;15.390;2022-07-24T08:58:40;5.18;;;4.78;;
12758;SDS011;20944;47.048;15.390;2022-07-24T09:01:08;5.05;;;4.40;;
12758;SDS011;20944;47.048;15.390;2022-07-24T09:03:38;4.97;;;4.43;;
12758;SDS011;20944;47.048;15.390;2022-07-24T09:06:10;5.45;;;5.00;;
12758;SDS011;20944;47.048;15.390;2022-07-24T09:08:39;7.28;;;5.45;;
12758;SDS011;20944;47.048;15.390;2022-07-24T09:11:09;5.57;;;5.05;;
12758;SDS011;20944;47.048;15.390;2022-07-24T09:13:43;5.60;;;5.13;;
12758;SDS011;20944;47.048;15.390;2022-07-24T09:16:32;5.63;;;5.13;;
12758;SDS011;20944;47.048;15.390;2022-07-24T09:19:03;5.72;;;5.13;;
12758;SDS011;20944;47.048;15.390;2022-07-24T09:21:40;5.72;;;5.22;;
12758;SDS011;20944;47.048;15.390;2022-07-24T09:24:13;5.72;;;5.20;;
12758;SDS011;20944;47.048;15.390;2022-07-24T09:26:43;6.47;;;4.80;;
12758;SDS011;20944;47.048;15.390;2022-07-24T09:29:13;4.53;;;4.13;;
12758;SDS011;20944;47.048;15.390;2022-07-24T09:31:53;5.72;;;5.18;;
12758;SDS011;20944;47.048;15.390;2022-07-24T09:34:23;5.28;;;4.80;;
12758;SDS011;20944;47.048;15.390;2022-07-24T09:37:00;5.43;;;4.93;;
12758;SDS011;20944;47.048;15.390;2022-07-24T09:39:32;5.63;;;5.13;;
12758;SDS011;20944;47.048;15.390;2022-07-24T09:42:02;8.43;;;5.40;;
12758;SDS011;20944;47.048;15.390;2022-07-24T09:44:32;5.25;;;4.60;;
12758;SDS011;20944;47.048;15.390;2022-07-24T09:47:02;5.88;;;5.32;;
12758;SDS011;20944;47.048;15.390;2022-07-24T09:49:32;4.53;;;4.13;;
12758;SDS011;20944;47.048;15.390;2022-07-24T09:52:08;5.13;;;4.72;;
12758;SDS011;20944;47.048;15.390;2022-07-24T09:54:41;5.63;;;4.82;;
12758;SDS011;20944;47.048;15.390;2022-07-24T09:57:15;5.30;;;4.90;;
12758;SDS011;20944;47.048;15.390;2022-07-24T09:59:46;5.07;;;4.68;;
12758;SDS011;20944;47.048;15.390;2022-07-24T10:02:24;4.82;;;4.32;;
12758;SDS011;20944;47.048;15.390;2022-07-24T10:04:54;5.57;;;5.07;;
12758;SDS011;20944;47.048;15.390;2022-07-24T10:07:26;4.80;;;4.40;;
12758;SDS011;20944;47.048;15.390;2022-07-24T10:09:56;5.47;;;4.50;;
12758;SDS011;20944;47.048;15.390;2022-07-24T10:12:26;5.00;;;4.55;;
12758;SDS011;20944;47.048;15.390;2022-07-24T10:14:57;5.07;;;4.68;;
12758;SDS011;20944;47.048;15.390;2022-07-24T10:17:29;5.75;;;5.25;;
12758;SDS011;20944;47.048;15.390;2022-07-24T10:20:11;4.82;;;4.40;;
12758;SDS011;20944;47.048;15.390;2022-07-24T10:23:08;5.03;;;4.53;;
12758;SDS011;20944;47.048;15.390;2022-07-24T10:25:52;6.45;;;5.18;;
12758;SDS011;20944;47.048;15.390;2022-07-24T10:28:30;5.45;;;4.95;;
12758;SDS011;20944;47.048;15.390;2022-07-24T10:31:06;5.93;;;5.35;;
12758;SDS011;20944;47.048;15.390;2022-07-24T10:33:36;5.72;;;4.97;;
12758;SDS011;20944;47.048;15.390;2022-07-24T10:36:10;4.95;;;4.55;;
12758;SDS011;20944;47.048;15.390;2022-07-24T10:38:51;4.57;;;4.18;;
12758;SDS011;20944;47.048;15.390;2022-07-24T10:41:24;5.05;;;4.65;;
12758;SDS011;20944;47.048;15.390;2022-07-24T10:47:00;5.13;;;4.63;;
12758;SDS011;20944;47.048;15.390;2022-07-24T10:49:34;4.53;;;4.22;;
12758;SDS011;20944;47.048;15.390;2022-07-24T10:52:22;5.88;;;5.30;;
12758;SDS011;20944;47.048;15.390;2022-07-24T10:58:03;6.00;;;5.50;;
12758;SDS011;20944;47.048;15.390;2022-07-24T11:00:41;5.05;;;4.53;;
12758;SDS011;20944;47.048;15.390;2022-07-24T11:03:19;5.63;;;4.93;;
12758;SDS011;20944;47.048;15.390;2022-07-24T11:06:01;5.13;;;4.72;;
12758;SDS011;20944;47.048;15.390;2022-07-24T11:08:31;7.35;;;5.28;;
12758;SDS011;20944;47.048;15.390;2022-07-24T11:11:09;5.35;;;4.95;;
12758;SDS011;20944;47.048;15.390;2022-07-24T11:13:40;5.45;;;4.95;;
12758;SDS011;20944;47.048;15.390;2022-07-24T11:16:20;5.75;;;5.28;;
12758;SDS011;20944;47.048;15.390;2022-07-24T11:22:01;4.78;;;4.40;;
12758;SDS011;20944;47.048;15.390;2022-07-24T11:24:32;5.75;;;5.15;;
12758;SDS011;20944;47.048;15.390;2022-07-24T11:27:05;5.07;;;4.57;;
12758;SDS011;20944;47.048;15.390;2022-07-24T11:29:35;5.22;;;4.72;;
12758;SDS011;20944;47.048;15.390;2022-07-24T11:32:07;5.45;;;4.95;;
12758;SDS011;20944;47.048;15.390;2022-07-24T11:34:43;5.38;;;4.97;;
12758;SDS011;20944;47.048;15.390;2022-07-24T11:37:12;4.78;;;4.43;;
12758;SDS011;20944;47.048;15.390;2022-07-24T11:39:41;5.15;;;4.75;;
12758;SDS011;20944;47.048;15.390;2022-07-24T11:42:14;4.88;;;4.47;;
12758;SDS011;20944;47.048;15.390;2022-07-24T11:44:43;5.25;;;4.63;;
12758;SDS011;20944;47.048;15.390;2022-07-24T11:47:14;5.45;;;4.97;;
12758;SDS011;20944;47.048;15.390;2022-07-24T11:49:45;5.28;;;4.78;;
12758;SDS011;20944;47.048;15.390;2022-07-24T11:52:17;5.70;;;5.20;;
12758;SDS011;20944;47.048;15.390;2022-07-24T11:54:47;5.25;;;4.85;;
12758;SDS011;20944;47.048;15.390;2022-07-24T11:57:19;5.43;;;4.93;;
12758;SDS011;20944;47.048;15.390;2022-07-24T12:00:10;5.00;;;4.65;;
12758;SDS011;20944;47.048;15.390;2022-07-24T12:02:43;5.43;;;4.88;;
12758;SDS011;20944;47.048;15.390;2022-07-24T12:05:13;5.00;;;4.50;;
12758;SDS011;20944;47.048;15.390;2022-07-24T12:07:50;5.30;;;4.90;;
12758;SDS011;20944;47.048;15.390;2022-07-24T12:10:19;5.25;;;4.72;;
12758;SDS011;20944;47.048;15.390;2022-07-24T12:12:51;4.75;;;4.30;;
12758;SDS011;20944;47.048;15.390;2022-07-24T12:15:20;4.75;;;4.38;;
12758;SDS011;20944;47.048;15.390;2022-07-24T12:17:55;6.13;;;4.82;;
12758;SDS011;20944;47.048;15.390;2022-07-24T12:20:26;6.55;;;5.00;;
12758;SDS011;20944;47.048;15.390;2022-07-24T12:22:56;5.70;;;5.10;;
12758;SDS011;20944;47.048;15.390;2022-07-24T12:25:25;5.28;;;4.88;;
12758;SDS011;20944;47.048;15.390;2022-07-24T12:28:04;4.90;;;4.50;;
12758;SDS011;20944;47.048;15.390;2022-07-24T12:30:34;5.20;;;4.70;;
12758;SDS011;20944;47.048;15.390;2022-07-24T12:33:05;5.72;;;5.22;;
12758;SDS011;20944;47.048;15.390;2022-07-24T12:35:34;4.85;;;4.45;;
12758;SDS011;20944;47.048;15.390;2022-07-24T12:38:23;11.00;;;4.82;;
12758;SDS011;20944;47.048;15.390;2022-07-24T12:41:00;5.10;;;4.70;;
12758;SDS011;20944;47.048;15.390;2022-07-24T12:43:32;4.78;;;4.38;;
12758;SDS011;20944;47.048;15.390;2022-07-24T12:46:05;5.35;;;4.93;;
12758;SDS011;20944;47.048;15.390;2022-07-24T12:48:34;5.13;;;4.72;;
12758;SDS011;20944;47.048;15.390;2022-07-24T12:51:06;4.75;;;4.35;;
12758;SDS011;20944;47.048;15.390;2022-07-24T12:53:37;5.35;;;4.93;;
12758;SDS011;20944;47.048;15.390;2022-07-24T12:56:11;5.50;;;4.88;;
12758;SDS011;20944;47.048;15.390;2022-07-24T12:58:52;5.85;;;4.80;;
12758;SDS011;20944;47.048;15.390;2022-07-24T13:01:24;4.90;;;4.60;;
12758;SDS011;20944;47.048;15.390;2022-07-24T13:03:55;4.55;;;4.18;;
12758;SDS011;20944;47.048;15.390;2022-07-24T13:06:32;4.93;;;4.55;;
12758;SDS011;20944;47.048;15.390;2022-07-24T13:09:02;5.18;;;4.70;;
12758;SDS011;20944;47.048;15.390;2022-07-24T13:11:31;5.03;;;4.55;;
12758;SDS011;20944;47.048;15.390;2022-07-24T13:14:01;5.03;;;4.63;;
12758;SDS011;20944;47.048;15.390;2022-07-24T13:16:33;5.25;;;4.75;;
12758;SDS011;20944;47.048;15.390;2022-07-24T13:19:03;5.03;;;4.63;;
12758;SDS011;20944;47.048;15.390;2022-07-24T13:21:32;4.97;;;4.57;;
12758;SDS011;20944;47.048;15.390;2022-07-24T13:24:01;5.40;;;4.88;;
12758;SDS011;20944;47.048;15.390;2022-07-24T13:26:30;5.45;;;4.95;;
12758;SDS011;20944;47.048;15.390;2022-07-24T13:28:59;5.82;;;5.15;;
12758;SDS011;20944;47.048;15.390;2022-07-24T13:31:30;5.20;;;4.72;;
12758;SDS011;20944;47.048;15.390;2022-07-24T13:33:59;4.55;;;4.25;;
12758;SDS011;20944;47.048;15.390;2022-07-24T13:36:28;5.72;;;5.28;;
12758;SDS011;20944;47.048;15.390;2022-07-24T13:38:56;5.75;;;5.25;;
12758;SDS011;20944;47.048;15.390;2022-07-24T13:41:25;5.05;;;4.65;;
12758;SDS011;20944;47.048;15.390;2022-07-24T13:43:53;6.72;;;4.80;;
12758;SDS011;20944;47.048;15.390;2022-07-24T13:46:25;5.38;;;4.97;;
12758;SDS011;20944;47.048;15.390;2022-07-24T13:48:54;6.10;;;4.93;;
12758;SDS011;20944;47.048;15.390;2022-07-24T13:51:23;5.30;;;4.93;;
12758;SDS011;20944;47.048;15.390;2022-07-24T13:53:52;5.10;;;4.60;;
12758;SDS011;20944;47.048;15.390;2022-07-24T13:56:21;5.47;;;5.05;;
12758;SDS011;20944;47.048;15.390;2022-07-24T13:58:49;4.85;;;4.45;;
12758;SDS011;20944;47.048;15.390;2022-07-24T14:01:18;5.32;;;4.93;;
12758;SDS011;20944;47.048;15.390;2022-07-24T14:04:02;5.40;;;4.75;;
12758;SDS011;20944;47.048;15.390;2022-07-24T14:06:55;5.50;;;5.00;;
12758;SDS011;20944;47.048;15.390;2022-07-24T14:09:23;5.85;;;5.35;;
12758;SDS011;20944;47.048;15.390;2022-07-24T14:11:52;5.40;;;4.90;;
12758;SDS011;20944;47.048;15.390;2022-07-24T14:14:21;5.32;;;4.35;;
12758;SDS011;20944;47.048;15.390;2022-07-24T14:16:49;4.90;;;4.60;;
12758;SDS011;20944;47.048;15.390;2022-07-24T14:19:19;5.10;;;4.70;;
12758;SDS011;20944;47.048;15.390;2022-07-24T14:21:48;4.72;;;4.43;;
12758;SDS011;20944;47.048;15.390;2022-07-24T14:24:16;5.65;;;5.22;;
12758;SDS011;20944;47.048;15.390;2022-07-24T14:26:47;4.60;;;4.20;;
12758;SDS011;20944;47.048;15.390;2022-07-24T14:29:16;4.80;;;4.40;;
12758;SDS011;20944;47.048;15.390;2022-07-24T14:31:45;4.97;;;4.63;;
12758;SDS011;20944;47.048;15.390;2022-07-24T14:34:13;5.55;;;5.15;;
12758;SDS011;20944;47.048;15.390;2022-07-24T14:36:43;4.75;;;4.32;;
12758;SDS011;20944;47.048;15.390;2022-07-24T14:39:12;5.57;;;5.18;;
12758;SDS011;20944;47.048;15.390;2022-07-24T14:41:41;5.05;;;4.65;;
12758;SDS011;20944;47.048;15.390;2022-07-24T14:44:09;5.05;;;4.60;;
12758;SDS011;20944;47.048;15.390;2022-07-24T14:46:38;5.43;;;4.80;;
12758;SDS011;20944;47.048;15.390;2022-07-24T14:49:08;6.18;;;5.68;;
12758;SDS011;20944;47.048;15.390;2022-07-24T14:51:36;4.53;;;4.00;;
12758;SDS011;20944;47.048;15.390;2022-07-24T14:54:07;5.32;;;4.85;;
12758;SDS011;20944;47.048;15.390;2022-07-24T14:56:37;4.75;;;4.35;;
12758;SDS011;20944;47.048;15.390;2022-07-24T14:59:06;5.05;;;4.68;;
12758;SDS011;20944;47.048;15.390;2022-07-24T15:01:46;5.72;;;5.25;;